Time;durP1;ratioP1;P1;durP2;ratioP2;P2;SDS_P1;SDS_P2;PMS_P1;PMS_P2;Temp;Humidity;BMP_temperature;BMP_pressure;BME280_temperature;BME280_humidity;BME280_pressure;Samples;Min_cycle;Max_cycle;Signal;HPM_P1;HPM_P2
2021/04/02 00:01:43;;;;;;;6.10;5.35;;;7.70;99.90;;;;;;5076503;28;20135;-83
2021/04/02 00:04:09;;;;;;;5.60;5.07;;;7.70;99.90;;;;;;5076209;28;20127;-83
2021/04/02 00:06:35;;;;;;;9.43;5.00;;;7.70;99.90;;;;;;5076247;28;20052;-83
2021/04/02 00:09:02;;;;;;;5.18;4.68;;;7.60;99.90;;;;;;5076104;28;20500;-83
2021/04/02 00:11:28;;;;;;;5.28;4.78;;;7.60;99.90;;;;;;5076477;28;20056;-83
2021/04/02 00:13:55;;;;;;;5.75;5.07;;;7.60;99.90;;;;;;5077573;28;20086;-83
2021/04/02 00:16:21;;;;;;;5.30;4.80;;;7.60;99.90;;;;;;5076135;28;20083;-83
2021/04/02 00:18:47;;;;;;;4.35;4.05;;;7.60;99.90;;;;;;5076255;28;20144;-83
2021/04/02 00:21:16;;;;;;;5.10;4.53;;;7.60;99.90;;;;;;5075957;28;20063;-83
2021/04/02 00:23:44;;;;;;;4.93;4.05;;;7.60;99.90;;;;;;5075783;28;20083;-83
2021/04/02 00:26:29;;;;;;;5.70;4.05;;;7.60;99.90;;;;;;5077350;28;20075;-83
2021/04/02 00:28:56;;;;;;;4.55;4.20;;;7.60;99.90;;;;;;5076340;28;20121;-83
2021/04/02 00:31:23;;;;;;;4.95;4.07;;;7.60;99.90;;;;;;5076314;28;20131;-82
2021/04/02 00:33:50;;;;;;;3.90;3.60;;;7.60;99.90;;;;;;5075757;28;20412;-83
2021/04/02 00:36:16;;;;;;;4.72;3.88;;;7.60;99.90;;;;;;5075851;28;20048;-83
2021/04/02 00:38:43;;;;;;;5.32;3.80;;;7.50;99.90;;;;;;5076128;28;20048;-83
2021/04/02 00:41:12;;;;;;;3.13;2.92;;;7.50;99.90;;;;;;5076788;28;20084;-83
2021/04/02 00:43:42;;;;;;;2.97;2.88;;;7.50;99.90;;;;;;5075642;28;20467;-83
2021/04/02 00:46:10;;;;;;;4.78;3.22;;;7.50;99.90;;;;;;5077010;28;20127;-83
2021/04/02 00:48:39;;;;;;;2.47;2.28;;;7.50;99.90;;;;;;5075776;28;20136;-83
2021/04/02 00:51:17;;;;;;;2.38;2.20;;;7.40;99.90;;;;;;5075672;28;20048;-83
2021/04/02 00:53:44;;;;;;;2.33;2.22;;;7.50;99.90;;;;;;5075768;28;20052;-83
2021/04/02 00:56:13;;;;;;;2.28;2.17;;;7.50;99.90;;;;;;5076661;28;20048;-83
2021/04/02 00:58:41;;;;;;;2.25;2.05;;;7.40;99.90;;;;;;5075311;28;20523;-83
2021/04/02 01:01:10;;;;;;;2.20;2.10;;;7.50;99.90;;;;;;5075500;28;20091;-83
2021/04/02 01:03:37;;;;;;;6.25;2.53;;;7.40;99.90;;;;;;5075419;28;20504;-83
2021/04/02 01:06:25;;;;;;;2.28;2.05;;;7.40;99.90;;;;;;5075568;28;20051;-83
2021/04/02 01:08:51;;;;;;;2.03;1.90;;;7.40;99.90;;;;;;5074615;28;20048;-83
2021/04/02 01:11:20;;;;;;;3.97;2.30;;;7.40;99.90;;;;;;5076253;28;20129;-83
2021/04/02 01:13:52;;;;;;;2.22;2.13;;;7.30;99.90;;;;;;5075433;28;20079;-83
2021/04/02 01:16:21;;;;;;;2.28;2.10;;;7.30;99.90;;;;;;5076253;28;20055;-83
2021/04/02 01:19:06;;;;;;;2.28;2.08;;;7.30;99.90;;;;;;5075097;28;20052;-83
2021/04/02 01:21:52;;;;;;;2.45;2.13;;;7.30;99.90;;;;;;5075164;28;20523;-83
2021/04/02 01:24:22;;;;;;;2.10;2.00;;;7.30;99.90;;;;;;5074844;28;20052;-83
2021/04/02 01:26:57;;;;;;;2.25;2.15;;;7.20;99.90;;;;;;5076096;28;20135;-83
2021/04/02 01:29:39;;;;;;;2.40;2.20;;;7.10;99.90;;;;;;5076192;28;20044;-83
2021/04/02 01:32:09;;;;;;;2.33;2.13;;;7.20;99.90;;;;;;5074768;28;20139;-83
2021/04/02 01:34:39;;;;;;;2.58;2.38;;;7.20;99.90;;;;;;5075105;28;20128;-83
2021/04/02 01:37:40;;;;;;;2.05;1.95;;;7.20;99.90;;;;;;5074795;28;20080;-83
2021/04/02 01:40:09;;;;;;;3.45;2.13;;;7.10;99.90;;;;;;5063437;28;20080;-82
2021/04/02 01:42:38;;;;;;;2.42;2.33;;;7.20;99.90;;;;;;5074978;28;20049;-83
2021/04/02 01:45:10;;;;;;;2.33;2.10;;;7.20;99.90;;;;;;5074627;28;20079;-82
2021/04/02 01:47:38;;;;;;;3.47;2.30;;;7.10;99.90;;;;;;5074656;28;20494;-83
2021/04/02 01:50:07;;;;;;;2.30;2.20;;;7.20;99.90;;;;;;5074435;28;20049;-82
2021/04/02 01:52:33;;;;;;;3.40;2.55;;;7.10;99.90;;;;;;5074506;28;20094;-83
2021/04/02 01:55:00;;;;;;;2.47;2.38;;;7.10;99.90;;;;;;5074551;28;20041;-83
2021/04/02 01:57:28;;;;;;;2.75;2.55;;;7.10;99.90;;;;;;5074292;28;20059;-83
2021/04/02 01:59:56;;;;;;;3.80;3.13;;;7.10;99.90;;;;;;5075781;28;20091;-83
2021/04/02 02:02:24;;;;;;;2.88;2.67;;;6.90;99.90;;;;;;5075078;28;20045;-85
2021/04/02 02:04:52;;;;;;;2.97;2.78;;;6.90;99.90;;;;;;5074305;28;20075;-83
2021/04/02 02:07:18;;;;;;;2.67;2.58;;;6.90;99.90;;;;;;5074011;28;20131;-83
2021/04/02 02:09:47;;;;;;;3.22;3.03;;;6.90;99.90;;;;;;5074434;28;20529;-83
2021/04/02 02:12:16;;;;;;;3.30;3.15;;;6.80;99.90;;;;;;5075169;28;20040;-83
2021/04/02 02:14:48;;;;;;;3.83;3.40;;;6.70;99.90;;;;;;5074016;28;20072;-83
2021/04/02 02:17:20;;;;;;;3.92;2.90;;;6.70;99.90;;;;;;5075285;28;20464;-83
2021/04/02 02:19:48;;;;;;;3.30;3.00;;;6.70;99.90;;;;;;5074141;28;20048;-83
2021/04/02 02:22:17;;;;;;;3.72;3.42;;;6.70;99.90;;;;;;5073695;28;20143;-83
2021/04/02 02:24:45;;;;;;;3.47;3.28;;;6.70;99.90;;;;;;5074929;28;20052;-83
2021/04/02 02:27:11;;;;;;;3.45;3.17;;;6.70;99.90;;;;;;5073723;28;20048;-82
2021/04/02 02:29:38;;;;;;;3.63;3.42;;;6.70;99.90;;;;;;5074833;28;20056;-83
2021/04/02 02:32:06;;;;;;;4.03;3.75;;;6.80;99.90;;;;;;5074414;28;20501;-82
2021/04/02 02:34:33;;;;;;;4.25;3.63;;;6.80;99.90;;;;;;5075228;28;20098;-83
2021/04/02 02:37:01;;;;;;;3.67;3.40;;;6.70;99.90;;;;;;5073936;28;20492;-83
2021/04/02 02:39:28;;;;;;;4.28;3.75;;;6.70;99.90;;;;;;5073390;28;20045;-83
2021/04/02 02:41:54;;;;;;;4.32;3.53;;;6.60;99.90;;;;;;5073355;28;20106;-82
2021/04/02 02:44:21;;;;;;;3.95;3.60;;;6.60;99.90;;;;;;5074609;28;20455;-84
2021/04/02 02:46:47;;;;;;;4.93;3.72;;;6.50;99.90;;;;;;5074454;28;20079;-85
2021/04/02 02:49:19;;;;;;;4.13;3.75;;;6.50;99.90;;;;;;5074844;28;20080;-85
2021/04/02 02:51:47;;;;;;;4.47;4.10;;;6.40;99.90;;;;;;5073346;28;20068;-85
2021/04/02 02:54:17;;;;;;;4.35;3.95;;;6.40;99.90;;;;;;5073400;28;20135;-84
2021/04/02 02:56:46;;;;;;;4.53;3.67;;;6.50;99.90;;;;;;5074648;28;20048;-83
2021/04/02 02:59:19;;;;;;;3.78;3.58;;;6.40;99.90;;;;;;5073263;28;20413;-83
2021/04/02 03:01:47;;;;;;;3.83;3.55;;;6.40;99.90;;;;;;5073219;28;20516;-83
2021/04/02 03:04:15;;;;;;;3.55;3.25;;;6.40;99.90;;;;;;5072980;28;20059;-82
2021/04/02 03:06:42;;;;;;;3.83;3.53;;;6.50;99.90;;;;;;5073267;28;20091;-83
2021/04/02 03:09:11;;;;;;;3.80;3.60;;;6.60;99.90;;;;;;5072711;28;20508;-82
2021/04/02 03:11:41;;;;;;;4.15;3.75;;;6.60;99.90;;;;;;5072894;28;20092;-83
2021/04/02 03:14:09;;;;;;;5.60;3.78;;;6.50;99.90;;;;;;5072835;28;20050;-83
2021/04/02 03:16:42;;;;;;;4.20;3.90;;;6.50;99.90;;;;;;5074128;28;20076;-82
2021/04/02 03:19:16;;;;;;;5.28;4.72;;;6.40;99.90;;;;;;5072734;28;20123;-83
2021/04/02 03:21:45;;;;;;;4.55;4.25;;;6.30;99.90;;;;;;5073204;28;20128;-83
2021/04/02 03:24:13;;;;;;;5.10;4.70;;;6.30;99.90;;;;;;5073352;28;20084;-82
2021/04/02 03:26:43;;;;;;;5.85;5.25;;;6.20;99.90;;;;;;5072589;28;20080;-83
2021/04/02 03:29:12;;;;;;;6.15;4.95;;;6.20;99.90;;;;;;5072579;28;20058;-83
2021/04/02 03:31:40;;;;;;;8.95;5.68;;;6.20;99.90;;;;;;5074187;28;20127;-83
2021/04/02 03:34:10;;;;;;;5.50;4.95;;;6.10;99.90;;;;;;5073783;28;20048;-83
2021/04/02 03:36:38;;;;;;;8.40;5.93;;;6.00;99.90;;;;;;5073291;28;20483;-83
2021/04/02 03:39:08;;;;;;;7.28;6.57;;;6.00;99.90;;;;;;5073037;28;20132;-82
2021/04/02 03:41:36;;;;;;;6.95;6.35;;;6.00;99.90;;;;;;5072331;28;20509;-82
2021/04/02 03:44:05;;;;;;;7.28;6.55;;;5.90;99.90;;;;;;5074631;28;20171;-84
2021/04/02 03:46:35;;;;;;;9.88;7.03;;;5.80;99.90;;;;;;5072626;28;20135;-84
2021/04/02 03:49:03;;;;;;;8.77;7.60;;;5.80;99.90;;;;;;5072937;28;20455;-85
2021/04/02 03:51:32;;;;;;;10.25;7.68;;;5.80;99.90;;;;;;5072858;28;20097;-85
2021/04/02 03:54:03;;;;;;;9.93;8.07;;;5.80;99.90;;;;;;5072225;28;20049;-85
2021/04/02 03:56:32;;;;;;;10.55;8.07;;;5.80;99.90;;;;;;5072864;28;20131;-85
2021/04/02 03:59:00;;;;;;;9.00;8.10;;;5.80;99.90;;;;;;5073434;28;20048;-85
2021/04/02 04:01:30;;;;;;;9.85;7.50;;;5.70;99.90;;;;;;5073612;28;20056;-85
2021/04/02 04:03:59;;;;;;;10.32;8.30;;;5.70;99.90;;;;;;5072286;28;20083;-83
2021/04/02 04:06:26;;;;;;;8.85;7.28;;;5.70;99.90;;;;;;5073809;28;20139;-82
2021/04/02 04:08:56;;;;;;;8.88;7.90;;;5.70;99.90;;;;;;5072648;28;20419;-83
2021/04/02 04:11:27;;;;;;;8.43;7.63;;;5.70;99.90;;;;;;5073190;28;20091;-82
2021/04/02 04:13:55;;;;;;;8.70;7.03;;;5.70;99.90;;;;;;5072486;28;20095;-82
2021/04/02 04:16:23;;;;;;;9.93;8.35;;;5.70;99.90;;;;;;5072725;28;20040;-82
2021/04/02 04:18:59;;;;;;;8.77;7.88;;;5.70;99.90;;;;;;5073845;28;20166;-82
2021/04/02 04:21:31;;;;;;;11.98;8.95;;;5.70;99.90;;;;;;5073710;28;20625;-82
2021/04/02 04:24:00;;;;;;;9.77;8.23;;;5.70;99.90;;;;;;5072884;28;20106;-82
2021/04/02 04:26:28;;;;;;;10.38;7.95;;;5.70;99.90;;;;;;5073372;28;20080;-82
2021/04/02 04:28:55;;;;;;;11.02;8.13;;;5.70;99.90;;;;;;5073357;28;20087;-82
2021/04/02 04:31:23;;;;;;;9.20;8.10;;;5.70;99.90;;;;;;5073422;28;20056;-82
2021/04/02 04:33:54;;;;;;;10.30;8.27;;;5.80;99.90;;;;;;5073236;28;20511;-82
2021/04/02 04:36:21;;;;;;;13.07;7.78;;;5.70;99.90;;;;;;5073400;28;20040;-82
2021/04/02 04:38:52;;;;;;;8.57;7.68;;;5.70;99.90;;;;;;5073188;28;20041;-82
2021/04/02 04:41:20;;;;;;;9.98;7.28;;;5.70;99.90;;;;;;5073070;28;20110;-82
2021/04/02 04:43:48;;;;;;;8.73;7.63;;;5.80;99.90;;;;;;5076237;28;20088;-82
2021/04/02 04:46:14;;;;;;;9.95;7.13;;;5.80;99.90;;;;;;5076956;28;20489;-82
2021/04/02 04:48:40;;;;;;;9.23;6.80;;;5.90;99.90;;;;;;5076927;28;20569;-82
2021/04/02 04:51:09;;;;;;;13.45;7.65;;;6.00;99.90;;;;;;5076482;28;20048;-82
2021/04/02 04:53:38;;;;;;;18.13;7.88;;;6.00;99.90;;;;;;5076529;28;20477;-82
2021/04/02 04:56:08;;;;;;;9.93;8.07;;;5.90;99.90;;;;;;5077423;28;20177;-82
2021/04/02 04:58:39;;;;;;;8.80;7.47;;;5.90;99.90;;;;;;5076230;28;20052;-82
2021/04/02 05:01:11;;;;;;;7.93;6.88;;;5.90;99.90;;;;;;5076422;28;20076;-82
2021/04/02 05:03:38;;;;;;;8.15;6.90;;;6.00;99.90;;;;;;5076520;28;20048;-82
2021/04/02 05:06:06;;;;;;;11.00;8.05;;;6.00;99.90;;;;;;5076047;28;20135;-82
2021/04/02 05:08:40;;;;;;;10.13;7.68;;;5.90;99.90;;;;;;5076052;28;20131;-82
2021/04/02 05:11:13;;;;;;;9.43;7.70;;;6.00;99.90;;;;;;5075861;28;20060;-82
2021/04/02 05:13:41;;;;;;;8.70;7.32;;;6.00;99.90;;;;;;5072328;28;20037;-82
2021/04/02 05:16:09;;;;;;;8.27;7.47;;;6.00;99.90;;;;;;5059716;28;20135;-82
2021/04/02 05:18:36;;;;;;;8.60;7.70;;;6.00;99.90;;;;;;5057124;28;20497;-82
2021/04/02 05:21:03;;;;;;;8.23;7.43;;;5.90;99.90;;;;;;5056068;28;20517;-82
2021/04/02 05:23:29;;;;;;;9.98;7.82;;;5.90;99.90;;;;;;5057206;28;20045;-82
2021/04/02 05:25:56;;;;;;;10.77;8.23;;;5.90;99.90;;;;;;5055773;28;20133;-82
2021/04/02 05:28:22;;;;;;;11.50;8.27;;;5.80;99.90;;;;;;5056125;28;20136;-82
2021/04/02 05:30:50;;;;;;;10.52;8.68;;;5.80;99.90;;;;;;5055347;28;20576;-82
2021/04/02 05:33:16;;;;;;;11.25;8.68;;;5.80;99.90;;;;;;5055220;28;20385;-81
2021/04/02 05:35:42;;;;;;;12.73;10.18;;;5.80;99.90;;;;;;5057119;28;20128;-81
2021/04/02 05:38:08;;;;;;;10.52;9.05;;;5.90;99.90;;;;;;5076094;28;20136;-81
2021/04/02 05:41:00;;;;;;;9.75;8.10;;;5.90;99.90;;;;;;5076066;28;20059;-81
2021/04/02 05:43:56;;;;;;;12.88;9.50;;;5.90;99.90;;;;;;5075404;28;20192;-84
2021/04/02 05:46:24;;;;;;;10.15;8.50;;;5.90;99.90;;;;;;5073806;28;20132;-84
2021/04/02 05:49:03;;;;;;;10.27;8.82;;;6.00;99.90;;;;;;5076176;28;20087;-84
2021/04/02 05:51:30;;;;;;;10.90;8.85;;;6.10;99.90;;;;;;5075062;28;20049;-84
2021/04/02 05:53:57;;;;;;;12.10;9.18;;;6.20;99.90;;;;;;5073338;28;20114;-84
2021/04/02 05:56:24;;;;;;;10.07;8.85;;;6.10;99.90;;;;;;5074592;28;20082;-84
2021/04/02 05:58:51;;;;;;;9.93;8.63;;;6.00;99.90;;;;;;5075661;28;20223;-84
2021/04/02 06:01:18;;;;;;;13.32;9.45;;;6.00;99.90;;;;;;5074502;28;20128;-84
2021/04/02 06:03:45;;;;;;;26.73;10.75;;;6.10;99.90;;;;;;5074874;28;20050;-84
2021/04/02 06:06:15;;;;;;;12.82;10.43;;;6.00;99.90;;;;;;5074477;28;20045;-83
2021/04/02 06:08:46;;;;;;;14.32;10.93;;;5.90;99.90;;;;;;5075153;28;20075;-83
2021/04/02 06:11:13;;;;;;;15.75;10.25;;;5.90;99.90;;;;;;5075364;28;20048;-83
2021/04/02 06:13:40;;;;;;;12.43;8.95;;;5.80;99.90;;;;;;5074748;28;20132;-84
2021/04/02 06:16:07;;;;;;;12.45;8.10;;;5.70;99.90;;;;;;5075072;28;20139;-84
2021/04/02 06:18:38;;;;;;;10.23;7.85;;;5.70;99.90;;;;;;5075142;28;20523;-83
2021/04/02 06:21:04;;;;;;;12.20;7.97;;;5.60;99.90;;;;;;5076183;28;20068;-83
2021/04/02 06:23:33;;;;;;;12.20;8.55;;;5.60;99.90;;;;;;5075440;28;20051;-84
2021/04/02 06:26:06;;;;;;;10.40;7.68;;;5.60;99.90;;;;;;5075075;28;20068;-84
2021/04/02 06:28:34;;;;;;;10.13;6.90;;;5.70;99.90;;;;;;5075373;28;20397;-84
2021/04/02 06:31:12;;;;;;;12.55;7.50;;;5.70;99.90;;;;;;5074979;28;20290;-81
2021/04/02 06:34:04;;;;;;;10.35;6.20;;;5.60;99.90;;;;;;5058671;28;20049;-81
2021/04/02 06:36:30;;;;;;;8.98;6.72;;;5.60;99.90;;;;;;5053941;28;20087;-81
2021/04/02 06:39:03;;;;;;;8.30;6.40;;;5.70;99.90;;;;;;5054008;28;20132;-81
2021/04/02 06:41:31;;;;;;;9.97;7.80;;;5.80;99.90;;;;;;5054920;28;20465;-81
2021/04/02 06:44:00;;;;;;;11.18;7.55;;;5.80;99.90;;;;;;5054386;28;20075;-81
2021/04/02 06:46:29;;;;;;;9.13;6.88;;;5.80;99.90;;;;;;5054512;28;20055;-81
2021/04/02 06:49:12;;;;;;;11.02;7.43;;;5.80;99.90;;;;;;5054462;28;20053;-81
2021/04/02 06:51:44;;;;;;;10.10;7.38;;;5.90;99.90;;;;;;5054388;28;20049;-81
2021/04/02 06:54:25;;;;;;;8.95;7.18;;;5.90;99.90;;;;;;5053831;28;20486;-81
2021/04/02 06:57:05;;;;;;;10.75;7.28;;;6.00;99.90;;;;;;5053893;28;20049;-81
2021/04/02 06:59:35;;;;;;;9.15;6.65;;;6.10;99.90;;;;;;5054351;28;20139;-82
2021/04/02 07:02:04;;;;;;;8.25;6.55;;;6.00;99.90;;;;;;5054013;28;20041;-81
2021/04/02 07:04:33;;;;;;;10.15;6.85;;;5.90;99.90;;;;;;5053766;28;20405;-81
2021/04/02 07:07:03;;;;;;;8.73;6.35;;;5.80;99.90;;;;;;5053610;28;20107;-81
2021/04/02 07:09:33;;;;;;;7.55;6.00;;;6.00;99.90;;;;;;5053876;28;20049;-81
2021/04/02 07:12:03;;;;;;;10.52;6.72;;;6.10;99.90;;;;;;5053845;28;20055;-81
2021/04/02 07:14:31;;;;;;;7.25;5.90;;;6.00;99.90;;;;;;5053806;28;20128;-82
2021/04/02 07:16:57;;;;;;;7.18;6.15;;;5.90;99.90;;;;;;5053661;28;20053;-83
2021/04/02 07:19:25;;;;;;;9.65;6.55;;;5.80;99.90;;;;;;5054532;28;20095;-83
2021/04/02 07:21:52;;;;;;;7.22;6.32;;;5.90;99.90;;;;;;5054712;28;20489;-83
2021/04/02 07:24:22;;;;;;;6.93;6.22;;;6.00;99.90;;;;;;5055115;28;20474;-83
2021/04/02 07:26:50;;;;;;;9.40;6.43;;;6.10;99.90;;;;;;5053299;28;20045;-83
2021/04/02 07:29:18;;;;;;;6.95;5.72;;;6.10;99.90;;;;;;5054321;28;20059;-84
2021/04/02 07:31:46;;;;;;;8.55;6.15;;;6.20;99.90;;;;;;5053429;28;20477;-83
2021/04/02 07:34:14;;;;;;;8.30;5.80;;;6.20;99.90;;;;;;5053125;28;20481;-83
2021/04/02 07:36:41;;;;;;;8.27;5.90;;;6.00;99.90;;;;;;5053163;28;20045;-83
2021/04/02 07:39:09;;;;;;;6.45;5.05;;;6.00;99.90;;;;;;5053304;28;20049;-83
2021/04/02 07:41:39;;;;;;;6.22;5.00;;;6.00;99.90;;;;;;5054548;28;20084;-83
2021/04/02 07:44:07;;;;;;;6.85;4.90;;;6.00;99.90;;;;;;5054538;28;20092;-84
2021/04/02 07:46:34;;;;;;;7.82;4.45;;;6.00;99.90;;;;;;5053230;28;20573;-84
2021/04/02 07:49:09;;;;;;;6.03;4.80;;;5.80;99.90;;;;;;5052597;28;20084;-83
2021/04/02 07:51:49;;;;;;;6.47;4.50;;;5.70;99.90;;;;;;5054828;28;20056;-83
2021/04/02 07:54:19;;;;;;;5.70;4.72;;;5.70;99.90;;;;;;5054788;28;20135;-84
2021/04/02 07:56:49;;;;;;;7.60;4.63;;;5.80;99.90;;;;;;5053282;28;20531;-83
2021/04/02 07:59:15;;;;;;;5.80;5.13;;;6.00;99.90;;;;;;5053722;28;20067;-84
2021/04/02 08:02:03;;;;;;;5.28;4.32;;;6.00;99.90;;;;;;5053356;28;20052;-83
2021/04/02 08:04:53;;;;;;;4.78;4.28;;;6.10;99.90;;;;;;5053453;28;20049;-83
2021/04/02 08:07:37;;;;;;;5.22;4.40;;;6.40;99.90;;;;;;5053678;28;20099;-84
2021/04/02 08:10:14;;;;;;;4.57;4.18;;;6.60;99.90;;;;;;5053281;28;20084;-83
2021/04/02 08:12:42;;;;;;;178.35;101.22;;;6.40;99.90;;;;;;5054713;28;20171;-83
2021/04/02 08:15:10;;;;;;;11.35;8.13;;;6.60;99.90;;;;;;5053581;28;20124;-83
2021/04/02 08:17:37;;;;;;;10.32;6.97;;;6.80;99.90;;;;;;5055331;28;20057;-83
2021/04/02 08:20:10;;;;;;;4.50;4.10;;;7.20;99.90;;;;;;5057159;28;20073;-84
2021/04/02 08:22:37;;;;;;;3.85;3.55;;;7.10;99.90;;;;;;5057011;28;20138;-84
2021/04/02 08:25:09;;;;;;;3.30;3.10;;;7.20;99.90;;;;;;5056934;28;20119;-84
2021/04/02 08:27:36;;;;;;;3.60;3.00;;;7.40;99.90;;;;;;5057015;28;20079;-83
2021/04/02 08:30:05;;;;;;;5.13;3.40;;;7.60;99.90;;;;;;5056687;28;20083;-81
2021/04/02 08:32:40;;;;;;;4.32;3.88;;;7.80;99.90;;;;;;5057263;28;20048;-81
2021/04/02 08:35:08;;;;;;;3.33;3.03;;;7.80;99.90;;;;;;5057668;28;20075;-81
2021/04/02 08:37:36;;;;;;;4.40;3.95;;;7.50;99.90;;;;;;5058022;28;20099;-81
2021/04/02 08:40:09;;;;;;;6.10;5.15;;;7.80;99.90;;;;;;5058766;28;20096;-81
2021/04/02 08:42:36;;;;;;;3.73;3.33;;;7.60;99.90;;;;;;5057357;28;20493;-81
2021/04/02 08:45:08;;;;;;;6.80;5.55;;;8.10;99.90;;;;;;5057487;28;20049;-81
2021/04/02 08:47:39;;;;;;;6.03;4.35;;;8.20;99.90;;;;;;5057578;28;20127;-81
2021/04/02 08:50:06;;;;;;;15.95;14.50;;;8.50;99.90;;;;;;5057048;28;20133;-81
2021/04/02 08:52:33;;;;;;;3.00;2.80;;;8.90;99.90;;;;;;5057770;28;20393;-82
2021/04/02 08:55:04;;;;;;;24.20;15.20;;;8.80;99.90;;;;;;5057547;28;20055;-82
2021/04/02 08:57:32;;;;;;;4.55;4.07;;;9.00;99.90;;;;;;5057289;28;20088;-81
2021/04/02 09:00:08;;;;;;;3.10;2.80;;;9.10;99.90;;;;;;5058530;28;20048;-81
2021/04/02 09:02:37;;;;;;;2.80;2.60;;;9.10;99.90;;;;;;5057086;28;20137;-81
2021/04/02 09:05:09;;;;;;;3.85;3.50;;;8.80;99.90;;;;;;5056492;28;20490;-82
2021/04/02 09:07:40;;;;;;;3.75;2.88;;;8.80;99.90;;;;;;5056304;28;20110;-82
2021/04/02 09:10:12;;;;;;;3.03;2.70;;;8.70;99.90;;;;;;5057155;28;20493;-81
2021/04/02 09:12:47;;;;;;;2.75;2.55;;;8.80;99.90;;;;;;5059177;28;20052;-84
2021/04/02 09:15:33;;;;;;;3.63;3.30;;;8.30;99.90;;;;;;5058034;28;20041;-84
2021/04/02 09:18:15;;;;;;;4.00;3.17;;;8.40;99.90;;;;;;5056570;28;20395;-84
2021/04/02 09:20:42;;;;;;;4.47;4.13;;;8.50;99.90;;;;;;5057261;28;20133;-84
2021/04/02 09:23:09;;;;;;;20.75;17.45;;;8.20;99.90;;;;;;5056511;28;20470;-84
2021/04/02 09:25:43;;;;;;;15.35;11.00;;;8.10;99.90;;;;;;5056701;28;20135;-82
2021/04/02 09:28:09;;;;;;;5.28;4.78;;;8.20;99.90;;;;;;5056642;28;20049;-82
2021/04/02 09:30:37;;;;;;;18.65;14.95;;;8.20;99.90;;;;;;5055480;28;20068;-81
2021/04/02 09:33:03;;;;;;;3.72;3.00;;;8.20;99.90;;;;;;5055089;28;20548;-82
2021/04/02 09:35:30;;;;;;;4.97;4.47;;;8.60;99.90;;;;;;5057402;28;20077;-81
2021/04/02 09:37:56;;;;;;;21.88;14.23;;;8.50;99.90;;;;;;5055872;28;20051;-82
2021/04/02 09:40:29;;;;;;;3.35;3.05;;;8.50;99.90;;;;;;5055431;28;20057;-81
2021/04/02 09:42:55;;;;;;;2.15;2.05;;;8.60;99.90;;;;;;5055468;28;20104;-81
2021/04/02 09:45:27;;;;;;;3.60;2.20;;;8.40;99.90;;;;;;5056707;28;20069;-81
2021/04/02 09:47:53;;;;;;;2.63;2.42;;;8.70;99.90;;;;;;5057036;28;20131;-81
2021/04/02 09:50:22;;;;;;;3.15;2.65;;;8.70;99.90;;;;;;5055641;28;20068;-82
2021/04/02 09:52:48;;;;;;;2.72;2.53;;;9.00;99.90;;;;;;5055896;28;20041;-82
2021/04/02 09:55:15;;;;;;;3.17;2.40;;;9.10;99.90;;;;;;5055258;28;20048;-82
2021/04/02 09:57:42;;;;;;;2.55;2.35;;;9.50;99.90;;;;;;5057212;28;20098;-82
2021/04/02 10:00:11;;;;;;;2.72;2.53;;;9.60;99.90;;;;;;5055364;28;20076;-82
2021/04/02 10:02:37;;;;;;;5.88;2.60;;;9.70;99.90;;;;;;5054935;28;20135;-82
2021/04/02 10:05:06;;;;;;;3.90;2.20;;;10.60;99.90;;;;;;5056441;28;20091;-82
2021/04/02 10:07:33;;;;;;;7.15;2.40;;;11.20;99.90;;;;;;5055508;28;20493;-82
2021/04/02 10:10:00;;;;;;;4.65;2.60;;;11.60;99.90;;;;;;5063032;28;20095;-82
2021/04/02 10:12:27;;;;;;;2.55;2.45;;;11.60;99.90;;;;;;5063029;28;20512;-82
2021/04/02 10:14:54;;;;;;;2.28;2.17;;;11.10;99.90;;;;;;5054693;28;20080;-82
2021/04/02 10:17:25;;;;;;;2.17;2.08;;;10.80;99.90;;;;;;5055122;28;20493;-82
2021/04/02 10:19:51;;;;;;;2.60;2.40;;;10.60;99.90;;;;;;5055142;28;20049;-82
2021/04/02 10:22:17;;;;;;;2.40;2.30;;;10.50;99.90;;;;;;5055287;28;20049;-81
2021/04/02 10:24:44;;;;;;;2.30;2.10;;;9.80;99.90;;;;;;5055141;28;20140;-82
2021/04/02 10:27:11;;;;;;;2.10;2.00;;;9.60;99.90;;;;;;5055020;28;20106;-82
2021/04/02 10:29:37;;;;;;;3.80;3.45;;;9.60;99.90;;;;;;5056102;28;20052;-82
2021/04/02 10:32:04;;;;;;;8.73;2.85;;;9.50;99.90;;;;;;5054853;28;20095;-82
2021/04/02 10:34:30;;;;;;;2.50;2.40;;;9.70;99.90;;;;;;5054741;28;20132;-82
2021/04/02 10:36:57;;;;;;;2.88;2.67;;;9.80;99.90;;;;;;5055786;28;20063;-82
2021/04/02 10:39:23;;;;;;;4.57;4.03;;;9.60;99.90;;;;;;5054678;28;20446;-82
2021/04/02 10:41:49;;;;;;;12.05;10.63;;;9.00;99.90;;;;;;5053785;28;20671;-82
2021/04/02 10:44:18;;;;;;;3.30;3.00;;;8.80;99.90;;;;;;5056063;28;20127;-82
2021/04/02 10:46:44;;;;;;;7.80;7.00;;;8.90;99.90;;;;;;5055728;28;20053;-82
2021/04/02 10:49:11;;;;;;;2.60;2.50;;;8.70;99.90;;;;;;5054318;28;20104;-82
2021/04/02 10:51:38;;;;;;;2.67;2.53;;;8.80;99.90;;;;;;5054152;28;20491;-82
2021/04/02 10:54:04;;;;;;;2.85;2.65;;;9.10;99.90;;;;;;5054210;28;20455;-82
2021/04/02 10:56:32;;;;;;;2.25;2.15;;;9.20;99.90;;;;;;5054605;28;20128;-82
2021/04/02 10:58:59;;;;;;;4.35;3.80;;;9.30;99.90;;;;;;5054849;28;20467;-82
2021/04/02 11:01:26;;;;;;;2.78;2.58;;;9.30;99.90;;;;;;5056443;28;20084;-82
2021/04/02 11:03:53;;;;;;;3.10;2.40;;;9.50;99.90;;;;;;5055111;28;20075;-82
2021/04/02 11:06:19;;;;;;;2.25;2.10;;;9.40;99.90;;;;;;5055783;28;20088;-82
2021/04/02 11:08:46;;;;;;;5.50;4.38;;;10.30;99.90;;;;;;5055922;28;20091;-82
2021/04/02 11:11:13;;;;;;;2.63;2.20;;;10.50;99.90;;;;;;5055473;28;20057;-82
2021/04/02 11:13:39;;;;;;;3.55;3.25;;;10.40;99.90;;;;;;5055248;28;20049;-82
2021/04/02 11:16:06;;;;;;;5.88;4.60;;;10.20;99.90;;;;;;5055108;28;20077;-82
2021/04/02 11:18:32;;;;;;;2.65;2.55;;;10.20;99.90;;;;;;5054747;28;20084;-82
2021/04/02 11:20:59;;;;;;;2.10;2.00;;;9.50;99.90;;;;;;5056422;28;20135;-82
2021/04/02 11:23:26;;;;;;;2.63;2.42;;;9.80;99.90;;;;;;5056933;28;20049;-82
2021/04/02 11:25:54;;;;;;;2.28;2.03;;;9.90;99.90;;;;;;5055673;28;20049;-82
2021/04/02 11:28:21;;;;;;;1.98;1.88;;;10.50;99.90;;;;;;5055277;28;20106;-82
2021/04/02 11:30:50;;;;;;;3.88;2.20;;;10.80;99.90;;;;;;5057252;28;20080;-82
2021/04/02 11:33:16;;;;;;;2.40;2.30;;;10.80;99.90;;;;;;5054897;28;20098;-82
2021/04/02 11:35:44;;;;;;;1.98;1.88;;;10.60;99.90;;;;;;5055818;28;20103;-82
2021/04/02 11:38:11;;;;;;;2.35;2.10;;;10.40;99.90;;;;;;5055290;28;20510;-82
2021/04/02 11:40:37;;;;;;;2.10;2.00;;;10.70;99.90;;;;;;5054229;28;20473;-82
2021/04/02 11:43:09;;;;;;;6.82;5.93;;;10.70;99.90;;;;;;5055462;28;20060;-82
2021/04/02 11:45:35;;;;;;;3.50;3.20;;;10.30;99.90;;;;;;5055519;28;20055;-82
2021/04/02 11:48:02;;;;;;;2.25;2.15;;;10.60;99.90;;;;;;5055113;28;20536;-82
2021/04/02 11:50:33;;;;;;;2.45;2.22;;;10.50;99.90;;;;;;5054809;28;20080;-82
2021/04/02 11:52:59;;;;;;;2.55;2.42;;;10.20;99.90;;;;;;5057460;28;20063;-82
2021/04/02 11:55:26;;;;;;;3.05;2.85;;;10.60;99.90;;;;;;5059943;28;20075;-82
2021/04/02 11:57:52;;;;;;;2.65;2.45;;;10.50;99.90;;;;;;5060025;28;20072;-82
2021/04/02 12:00:27;;;;;;;2.33;2.22;;;10.60;99.90;;;;;;5058324;28;20044;-82
2021/04/02 12:02:55;;;;;;;2.65;2.45;;;10.50;99.90;;;;;;5059199;28;20493;-81
2021/04/02 12:05:25;;;;;;;2.45;2.17;;;10.30;99.90;;;;;;5058943;28;20124;-82
2021/04/02 12:07:52;;;;;;;3.17;2.60;;;10.90;99.90;;;;;;5057961;28;20132;-83
2021/04/02 12:10:22;;;;;;;2.10;2.00;;;10.40;99.90;;;;;;5057919;28;20048;-83
2021/04/02 12:12:48;;;;;;;2.22;2.13;;;10.60;99.90;;;;;;5058246;28;20076;-83
2021/04/02 12:15:15;;;;;;;2.33;2.03;;;10.20;99.90;;;;;;5057715;28;20489;-83
2021/04/02 12:17:43;;;;;;;2.42;2.25;;;10.20;99.90;;;;;;5057987;28;20087;-82
2021/04/02 12:20:13;;;;;;;2.80;2.60;;;10.20;99.90;;;;;;5060242;28;20049;-82
2021/04/02 12:22:44;;;;;;;2.28;2.10;;;10.30;99.90;;;;;;5058724;28;20040;-82
2021/04/02 12:25:13;;;;;;;2.25;2.08;;;10.50;99.90;;;;;;5059352;28;20149;-82
2021/04/02 12:27:40;;;;;;;2.28;2.17;;;10.90;99.90;;;;;;5058499;28;20087;-82
2021/04/02 12:30:12;;;;;;;2.15;2.05;;;11.20;99.90;;;;;;5058660;28;20062;-82
2021/04/02 12:32:38;;;;;;;2.38;2.28;;;11.10;99.90;;;;;;5057575;28;20080;-82
2021/04/02 12:35:09;;;;;;;2.20;2.10;;;11.10;99.90;;;;;;5057060;28;20042;-82
2021/04/02 12:37:35;;;;;;;2.03;1.90;;;11.00;99.90;;;;;;5057686;28;20391;-82
2021/04/02 12:40:20;;;;;;;2.03;1.92;;;11.10;99.90;;;;;;5056543;28;20133;-82
2021/04/02 12:42:46;;;;;;;2.20;2.10;;;11.20;99.90;;;;;;5058084;28;20405;-82
2021/04/02 12:45:14;;;;;;;3.22;2.38;;;11.60;99.90;;;;;;5060365;28;20465;-82
2021/04/02 12:47:41;;;;;;;2.38;2.28;;;11.50;99.90;;;;;;5058343;28;20056;-82
2021/04/02 12:50:13;;;;;;;2.58;2.38;;;11.40;99.90;;;;;;5059855;28;20081;-81
2021/04/02 12:52:46;;;;;;;3.40;2.47;;;11.40;99.90;;;;;;5057946;28;20150;-81
2021/04/02 12:55:15;;;;;;;3.55;2.72;;;11.10;99.90;;;;;;5056795;28;20071;-83
2021/04/02 12:57:43;;;;;;;3.33;3.05;;;11.30;99.90;;;;;;5057388;28;20080;-83
2021/04/02 13:00:13;;;;;;;7.40;3.38;;;10.90;99.90;;;;;;5057395;28;20084;-83
2021/04/02 13:02:39;;;;;;;3.03;2.83;;;10.70;99.90;;;;;;5057495;28;20497;-83
2021/04/02 13:05:43;;;;;;;2.70;2.60;;;10.50;99.90;;;;;;5057588;28;20131;-83